Time;durP1;ratioP1;P1;durP2;ratioP2;P2;SDS_P1;SDS_P2;PMS_P1;PMS_P2;Temp;Humidity;BMP_temperature;BMP_pressure;BME280_temperature;BME280_humidity;BME280_pressure;Samples;Min_cycle;Max_cycle;Signal;HPM_P1;HPM_P2
2021/06/21 00:00:09;;;;;;;6.43;3.60;;;;;;;;;;343853;28;1074;-70
2021/06/21 00:00:21;;;;;;;6.07;3.35;;;;;;;;;;343914;28;1114;-71
2021/06/21 00:00:33;;;;;;;6.72;3.05;;;;;;;;;;344749;28;1085;-70
2021/06/21 00:00:45;;;;;;;6.28;2.80;;;;;;;;;;345293;28;1106;-69
2021/06/21 00:00:57;;;;;;;6.65;2.90;;;;;;;;;;345118;28;1065;-70
2021/06/21 00:01:10;;;;;;;5.55;2.90;;;;;;;;;;345032;28;1075;-69
2021/06/21 00:01:22;;;;;;;5.40;2.75;;;;;;;;;;343702;28;1005;-69
2021/06/21 00:01:34;;;;;;;6.03;2.80;;;;;;;;;;344639;28;1235;-70
2021/06/21 00:01:46;;;;;;;5.47;2.67;;;;;;;;;;345142;28;1145;-69
2021/06/21 00:01:58;;;;;;;7.10;2.88;;;;;;;;;;345122;28;931;-71
2021/06/21 00:02:11;;;;;;;6.88;2.92;;;;;;;;;;345181;28;1091;-71
2021/06/21 00:02:23;;;;;;;7.45;2.92;;;;;;;;;;345204;28;1098;-71
2021/06/21 00:02:36;;;;;;;5.00;2.70;;;;;;;;;;344994;28;1204;-70
2021/06/21 00:02:48;;;;;;;5.50;2.83;;;;;;;;;;345247;28;1083;-71
2021/06/21 00:03:00;;;;;;;5.18;2.92;;;;;;;;;;345258;28;1149;-69
2021/06/21 00:03:13;;;;;;;4.80;2.97;;;;;;;;;;345188;28;1130;-71
2021/06/21 00:03:25;;;;;;;4.28;3.00;;;;;;;;;;346257;28;1080;-69
2021/06/21 00:03:37;;;;;;;4.82;3.10;;;;;;;;;;346624;28;1072;-69
2021/06/21 00:03:49;;;;;;;4.60;3.05;;;;;;;;;;346398;28;1085;-69
2021/06/21 00:04:01;;;;;;;4.35;2.80;;;;;;;;;;346552;28;1166;-70
2021/06/21 00:04:13;;;;;;;4.95;2.72;;;;;;;;;;345224;28;1110;-71
2021/06/21 00:04:25;;;;;;;4.80;2.90;;;;;;;;;;345208;28;1098;-68
2021/06/21 00:04:37;;;;;;;4.93;2.97;;;;;;;;;;344928;28;1085;-71
2021/06/21 00:04:50;;;;;;;3.85;2.90;;;;;;;;;;345071;28;2023;-69
2021/06/21 00:05:03;;;;;;;3.55;2.60;;;;;;;;;;345085;28;1946;-69
2021/06/21 00:05:15;;;;;;;3.10;2.40;;;;;;;;;;345192;28;1198;-71
2021/06/21 00:05:28;;;;;;;3.50;2.50;;;;;;;;;;345148;28;1088;-71
2021/06/21 00:05:40;;;;;;;3.60;2.60;;;;;;;;;;345103;28;1052;-69
2021/06/21 00:05:53;;;;;;;3.67;2.70;;;;;;;;;;345050;28;1384;-69
2021/06/21 00:06:05;;;;;;;4.45;2.85;;;;;;;;;;345098;28;1083;-70
2021/06/21 00:06:18;;;;;;;5.60;3.00;;;;;;;;;;346204;28;1391;-70
2021/06/21 00:06:30;;;;;;;4.85;2.92;;;;;;;;;;346638;28;1007;-69
2021/06/21 00:06:42;;;;;;;3.83;2.85;;;;;;;;;;346403;28;1043;-70
2021/06/21 00:06:55;;;;;;;3.92;2.60;;;;;;;;;;346388;28;987;-69
2021/06/21 00:07:07;;;;;;;4.13;2.45;;;;;;;;;;346718;28;1938;-69
2021/06/21 00:07:20;;;;;;;4.38;2.42;;;;;;;;;;345203;28;1157;-70
2021/06/21 00:07:32;;;;;;;4.22;2.40;;;;;;;;;;344781;28;1368;-69
2021/06/21 00:07:44;;;;;;;4.88;2.50;;;;;;;;;;344798;28;1110;-70
2021/06/21 00:07:57;;;;;;;5.18;2.65;;;;;;;;;;344902;28;972;-72
2021/06/21 00:08:09;;;;;;;3.88;2.47;;;;;;;;;;343429;28;1197;-70
2021/06/21 00:08:21;;;;;;;4.00;2.17;;;;;;;;;;343726;28;1074;-69
2021/06/21 00:08:33;;;;;;;3.72;2.20;;;;;;;;;;343727;28;992;-71
2021/06/21 00:08:45;;;;;;;3.67;2.20;;;;;;;;;;343869;28;1180;-69
2021/06/21 00:08:57;;;;;;;3.35;2.03;;;;;;;;;;343755;28;1188;-72
2021/06/21 00:09:10;;;;;;;3.63;2.10;;;;;;;;;;343837;28;1220;-71
2021/06/21 00:09:22;;;;;;;3.33;2.20;;;;;;;;;;344615;28;1142;-70
2021/06/21 00:09:34;;;;;;;2.67;2.10;;;;;;;;;;345067;28;1098;-69
2021/06/21 00:09:46;;;;;;;2.70;1.92;;;;;;;;;;345031;28;999;-70
2021/06/21 00:09:59;;;;;;;2.67;1.95;;;;;;;;;;345092;28;1239;-69
2021/06/21 00:10:13;;;;;;;3.00;2.10;;;;;;;;;;345932;28;1914;-71
2021/06/21 00:10:25;;;;;;;4.38;2.17;;;;;;;;;;346118;28;16702;-69
2021/06/21 00:10:37;;;;;;;4.30;2.03;;;;;;;;;;346669;28;1105;-71
2021/06/21 00:10:49;;;;;;;4.13;1.90;;;;;;;;;;346532;28;1220;-71
2021/06/21 00:11:02;;;;;;;3.80;2.05;;;;;;;;;;346643;28;1266;-71
2021/06/21 00:11:14;;;;;;;4.57;2.30;;;;;;;;;;346612;28;1153;-69
2021/06/21 00:11:26;;;;;;;4.65;2.28;;;;;;;;;;346581;28;1110;-71
2021/06/21 00:11:38;;;;;;;4.35;2.20;;;;;;;;;;346394;28;1074;-70
2021/06/21 00:11:50;;;;;;;4.55;2.20;;;;;;;;;;345048;28;1047;-71
2021/06/21 00:12:03;;;;;;;4.53;2.28;;;;;;;;;;345227;28;1103;-69
2021/06/21 00:12:16;;;;;;;4.38;2.30;;;;;;;;;;345074;28;1032;-69
2021/06/21 00:12:28;;;;;;;4.35;2.20;;;;;;;;;;344958;28;1083;-70
2021/06/21 00:12:43;;;;;;;3.38;1.98;;;;;;;;;;345120;28;1110;-72
2021/06/21 00:12:56;;;;;;;3.00;2.10;;;;;;;;;;343726;28;40904;-71
2021/06/21 00:13:08;;;;;;;3.38;2.20;;;;;;;;;;345262;28;1062;-69
2021/06/21 00:13:20;;;;;;;2.78;2.20;;;;;;;;;;344884;28;1153;-71
2021/06/21 00:13:32;;;;;;;2.95;2.20;;;;;;;;;;345029;28;1097;-70
2021/06/21 00:13:45;;;;;;;3.15;2.20;;;;;;;;;;344987;28;1149;-72
2021/06/21 00:13:57;;;;;;;3.63;2.28;;;;;;;;;;346572;28;1133;-69
2021/06/21 00:14:09;;;;;;;3.42;2.22;;;;;;;;;;346271;28;1137;-69
2021/06/21 00:14:21;;;;;;;4.15;2.22;;;;;;;;;;346715;28;1248;-70
2021/06/21 00:14:33;;;;;;;3.88;2.15;;;;;;;;;;346491;28;1177;-71
2021/06/21 00:14:45;;;;;;;3.20;1.90;;;;;;;;;;346559;28;1038;-70
2021/06/21 00:14:58;;;;;;;3.00;1.85;;;;;;;;;;346579;28;1085;-69
2021/06/21 00:15:11;;;;;;;2.58;1.95;;;;;;;;;;346506;28;1132;-70
2021/06/21 00:15:24;;;;;;;3.65;2.13;;;;;;;;;;346383;28;1195;-71
2021/06/21 00:15:37;;;;;;;3.75;2.05;;;;;;;;;;344789;28;18591;-72
2021/06/21 00:15:52;;;;;;;3.03;2.00;;;;;;;;;;345139;28;1214;-69
2021/06/21 00:16:04;;;;;;;2.40;2.03;;;;;;;;;;343619;28;40984;-72
2021/06/21 00:16:16;;;;;;;2.70;2.02;;;;;;;;;;345235;28;1173;-70
2021/06/21 00:16:29;;;;;;;4.38;2.10;;;;;;;;;;345258;28;991;-71
2021/06/21 00:16:41;;;;;;;5.00;2.17;;;;;;;;;;345239;28;1165;-70
2021/06/21 00:16:53;;;;;;;3.33;2.10;;;;;;;;;;345108;28;1209;-70
2021/06/21 00:17:05;;;;;;;3.03;1.92;;;;;;;;;;345162;28;1169;-68
2021/06/21 00:17:17;;;;;;;3.65;1.98;;;;;;;;;;345164;28;991;-68
2021/06/21 00:17:30;;;;;;;3.45;1.80;;;;;;;;;;344981;28;1222;-70
2021/06/21 00:17:42;;;;;;;4.25;1.90;;;;;;;;;;346668;28;1106;-69
2021/06/21 00:17:55;;;;;;;4.05;1.80;;;;;;;;;;346265;28;1160;-69
2021/06/21 00:18:07;;;;;;;3.20;1.80;;;;;;;;;;346793;28;986;-70
2021/06/21 00:18:19;;;;;;;2.60;1.70;;;;;;;;;;346420;28;1289;-72
2021/06/21 00:18:31;;;;;;;2.88;1.75;;;;;;;;;;346391;28;1145;-71
2021/06/21 00:18:43;;;;;;;3.00;1.90;;;;;;;;;;346798;28;1074;-71
2021/06/21 00:18:55;;;;;;;2.83;1.90;;;;;;;;;;346323;28;1193;-70
2021/06/21 00:19:07;;;;;;;2.40;1.75;;;;;;;;;;346588;28;1263;-70
2021/06/21 00:19:20;;;;;;;2.78;1.75;;;;;;;;;;346559;28;1094;-71
2021/06/21 00:19:32;;;;;;;3.08;1.88;;;;;;;;;;346689;28;1087;-69
2021/06/21 00:19:44;;;;;;;3.10;1.95;;;;;;;;;;346379;28;1188;-68
2021/06/21 00:19:56;;;;;;;2.65;1.80;;;;;;;;;;346477;28;1225;-71
2021/06/21 00:20:09;;;;;;;2.17;1.60;;;;;;;;;;346388;28;1083;-71
2021/06/21 00:20:22;;;;;;;1.98;1.63;;;;;;;;;;346764;28;1078;-70
2021/06/21 00:20:34;;;;;;;2.20;1.73;;;;;;;;;;346598;28;1284;-70
2021/06/21 00:20:47;;;;;;;2.58;1.95;;;;;;;;;;346409;28;1000;-71
2021/06/21 00:20:59;;;;;;;2.47;2.00;;;;;;;;;;346553;28;1909;-70
2021/06/21 00:21:11;;;;;;;2.00;1.80;;;;;;;;;;346662;28;1014;-70
2021/06/21 00:21:23;;;;;;;2.47;1.75;;;;;;;;;;346665;28;1193;-71
2021/06/21 00:21:35;;;;;;;3.17;2.00;;;;;;;;;;346430;28;1222;-69
2021/06/21 00:21:48;;;;;;;3.30;1.95;;;;;;;;;;346711;28;1173;-70
2021/06/21 00:22:00;;;;;;;3.58;1.80;;;;;;;;;;346671;28;1141;-70
2021/06/21 00:22:14;;;;;;;3.05;1.67;;;;;;;;;;346692;28;1185;-69
2021/06/21 00:22:26;;;;;;;3.80;1.70;;;;;;;;;;345899;28;18402;-72
2021/06/21 00:22:38;;;;;;;3.56;1.78;;;;;;;;;;346447;28;1092;-69
2021/06/21 00:22:51;;;;;;;3.00;1.90;;;;;;;;;;346609;28;1212;-71
2021/06/21 00:23:04;;;;;;;2.83;1.75;;;;;;;;;;346669;28;1077;-71
2021/06/21 00:23:16;;;;;;;2.92;1.73;;;;;;;;;;346566;28;1098;-71
2021/06/21 00:23:28;;;;;;;2.67;1.83;;;;;;;;;;346426;28;1098;-71
2021/06/21 00:23:41;;;;;;;2.28;1.70;;;;;;;;;;346559;28;1057;-70
2021/06/21 00:23:53;;;;;;;2.33;1.70;;;;;;;;;;346570;28;1089;-71
2021/06/21 00:24:05;;;;;;;3.13;1.77;;;;;;;;;;346574;28;1052;-71
2021/06/21 00:24:20;;;;;;;3.08;1.85;;;;;;;;;;346470;28;1117;-72
2021/06/21 00:24:32;;;;;;;2.58;1.77;;;;;;;;;;345092;28;40202;-69
2021/06/21 00:24:45;;;;;;;2.72;1.70;;;;;;;;;;346660;28;1011;-71
2021/06/21 00:24:57;;;;;;;2.92;1.70;;;;;;;;;;346604;28;1290;-71
2021/06/21 00:25:10;;;;;;;2.83;1.70;;;;;;;;;;346779;28;1117;-71
2021/06/21 00:25:23;;;;;;;2.38;1.80;;;;;;;;;;346432;28;1077;-70
2021/06/21 00:25:36;;;;;;;2.30;1.80;;;;;;;;;;345049;28;1199;-71
2021/06/21 00:25:49;;;;;;;3.72;1.85;;;;;;;;;;345048;28;1065;-71
2021/06/21 00:26:01;;;;;;;3.70;1.77;;;;;;;;;;345271;28;1165;-69
2021/06/21 00:26:13;;;;;;;3.52;1.70;;;;;;;;;;345158;28;1030;-71
2021/06/21 00:26:25;;;;;;;2.47;1.70;;;;;;;;;;345362;28;1989;-69
2021/06/21 00:26:37;;;;;;;2.30;1.70;;;;;;;;;;345128;28;1163;-70
2021/06/21 00:26:50;;;;;;;2.20;1.80;;;;;;;;;;344969;28;1161;-69
2021/06/21 00:27:02;;;;;;;2.78;1.90;;;;;;;;;;345104;28;1202;-69
2021/06/21 00:27:15;;;;;;;2.63;1.77;;;;;;;;;;344940;28;1082;-69
2021/06/21 00:27:27;;;;;;;2.60;1.70;;;;;;;;;;345152;28;1065;-70
2021/06/21 00:27:40;;;;;;;3.30;1.75;;;;;;;;;;346102;28;1082;-71
2021/06/21 00:27:52;;;;;;;3.35;1.80;;;;;;;;;;346663;28;1049;-69
2021/06/21 00:28:04;;;;;;;2.92;2.00;;;;;;;;;;346575;28;1132;-70
2021/06/21 00:28:17;;;;;;;3.08;2.00;;;;;;;;;;346511;28;1172;-71
2021/06/21 00:28:29;;;;;;;3.47;1.70;;;;;;;;;;346481;28;1070;-71
2021/06/21 00:28:41;;;;;;;3.38;1.67;;;;;;;;;;346720;28;1431;-71
2021/06/21 00:28:53;;;;;;;3.28;1.70;;;;;;;;;;346642;28;1096;-70
2021/06/21 00:29:05;;;;;;;2.80;1.70;;;;;;;;;;346306;28;1082;-69
2021/06/21 00:29:18;;;;;;;2.40;1.60;;;;;;;;;;346666;28;1081;-69
2021/06/21 00:29:30;;;;;;;3.20;1.80;;;;;;;;;;346538;28;1103;-70
2021/06/21 00:29:42;;;;;;;3.60;1.95;;;;;;;;;;346488;28;2109;-70
2021/06/21 00:29:54;;;;;;;3.40;1.85;;;;;;;;;;345209;28;1106;-71
2021/06/21 00:30:08;;;;;;;3.20;1.90;;;;;;;;;;345052;28;1090;-69
2021/06/21 00:30:21;;;;;;;2.50;1.88;;;;;;;;;;344546;28;16709;-70
2021/06/21 00:30:33;;;;;;;2.38;1.88;;;;;;;;;;345143;28;1054;-69
2021/06/21 00:30:45;;;;;;;2.60;1.90;;;;;;;;;;343751;28;1116;-71
2021/06/21 00:30:57;;;;;;;2.70;2.00;;;;;;;;;;343690;28;1217;-70
2021/06/21 00:31:09;;;;;;;3.22;2.10;;;;;;;;;;343886;28;1137;-70
2021/06/21 00:31:22;;;;;;;3.26;2.04;;;;;;;;;;343759;28;1090;-70
2021/06/21 00:31:34;;;;;;;3.30;1.95;;;;;;;;;;343759;28;1221;-69
2021/06/21 00:31:46;;;;;;;3.30;1.90;;;;;;;;;;343757;28;1206;-69
2021/06/21 00:31:59;;;;;;;2.85;1.80;;;;;;;;;;344731;28;1063;-70
2021/06/21 00:32:11;;;;;;;3.05;1.77;;;;;;;;;;345513;28;1137;-70
2021/06/21 00:32:23;;;;;;;2.63;1.63;;;;;;;;;;345120;28;1201;-69
2021/06/21 00:32:35;;;;;;;2.60;1.70;;;;;;;;;;345242;28;1193;-68
2021/06/21 00:32:48;;;;;;;2.45;1.90;;;;;;;;;;345892;28;1264;-69
2021/06/21 00:33:00;;;;;;;3.03;2.00;;;;;;;;;;346377;28;1105;-69
2021/06/21 00:33:13;;;;;;;3.06;2.02;;;;;;;;;;346465;28;1118;-70
2021/06/21 00:33:25;;;;;;;3.17;2.10;;;;;;;;;;346824;28;1085;-69
2021/06/21 00:33:37;;;;;;;3.03;1.92;;;;;;;;;;346797;28;1083;-70
2021/06/21 00:33:49;;;;;;;3.08;2.00;;;;;;;;;;346467;28;1149;-70
2021/06/21 00:34:01;;;;;;;3.38;2.10;;;;;;;;;;346762;28;1335;-69
2021/06/21 00:34:13;;;;;;;3.15;2.17;;;;;;;;;;346562;28;1114;-69
2021/06/21 00:34:26;;;;;;;3.72;2.10;;;;;;;;;;346706;28;1149;-70
2021/06/21 00:34:38;;;;;;;3.42;2.10;;;;;;;;;;346575;28;1278;-67
2021/06/21 00:34:50;;;;;;;4.00;2.10;;;;;;;;;;346414;28;1054;-70
2021/06/21 00:35:02;;;;;;;4.25;2.08;;;;;;;;;;346626;28;1014;-69
2021/06/21 00:35:15;;;;;;;3.83;1.95;;;;;;;;;;346730;28;1204;-70
2021/06/21 00:35:28;;;;;;;2.60;1.80;;;;;;;;;;345915;28;18058;-70
2021/06/21 00:35:40;;;;;;;3.05;1.98;;;;;;;;;;344775;28;1569;-69
2021/06/21 00:35:52;;;;;;;3.47;2.08;;;;;;;;;;344966;28;1446;-68
2021/06/21 00:36:04;;;;;;;3.97;2.22;;;;;;;;;;345091;28;1103;-70
2021/06/21 00:36:17;;;;;;;3.88;2.20;;;;;;;;;;344940;28;1171;-69
2021/06/21 00:36:29;;;;;;;4.32;2.20;;;;;;;;;;343918;28;1181;-68
2021/06/21 00:36:41;;;;;;;3.83;2.00;;;;;;;;;;343554;28;1197;-69
2021/06/21 00:36:53;;;;;;;3.13;1.88;;;;;;;;;;343673;28;1071;-72
2021/06/21 00:37:05;;;;;;;2.47;2.00;;;;;;;;;;343741;28;1041;-71
2021/06/21 00:37:17;;;;;;;3.60;2.20;;;;;;;;;;343622;28;1639;-70
2021/06/21 00:37:29;;;;;;;4.15;2.20;;;;;;;;;;343687;28;1112;-69
2021/06/21 00:37:41;;;;;;;3.85;2.10;;;;;;;;;;344265;28;1061;-69
2021/06/21 00:37:54;;;;;;;3.20;2.10;;;;;;;;;;345220;28;1266;-72
2021/06/21 00:38:07;;;;;;;3.17;2.03;;;;;;;;;;345031;28;1067;-70
2021/06/21 00:38:19;;;;;;;3.50;2.08;;;;;;;;;;343730;28;1110;-69
2021/06/21 00:38:31;;;;;;;3.72;2.10;;;;;;;;;;344280;28;1039;-69
2021/06/21 00:38:43;;;;;;;3.20;2.20;;;;;;;;;;344897;28;1002;-70
2021/06/21 00:38:55;;;;;;;2.85;2.38;;;;;;;;;;344991;28;1257;-69
2021/06/21 00:39:08;;;;;;;3.35;2.40;;;;;;;;;;344966;28;1959;-69
2021/06/21 00:39:20;;;;;;;3.50;2.20;;;;;;;;;;345220;28;1057;-69
2021/06/21 00:39:32;;;;;;;3.40;2.10;;;;;;;;;;344879;28;1034;-70
2021/06/21 00:39:45;;;;;;;2.97;2.20;;;;;;;;;;345012;28;1027;-70
2021/06/21 00:39:57;;;;;;;3.00;2.15;;;;;;;;;;345123;28;1209;-69
2021/06/21 00:40:10;;;;;;;3.15;2.20;;;;;;;;;;343762;28;1039;-69
2021/06/21 00:40:22;;;;;;;3.67;2.20;;;;;;;;;;344576;28;2116;-69
2021/06/21 00:40:35;;;;;;;3.80;2.10;;;;;;;;;;344975;28;1015;-69
2021/06/21 00:40:48;;;;;;;4.65;2.17;;;;;;;;;;344950;28;1097;-70
2021/06/21 00:41:00;;;;;;;3.45;2.10;;;;;;;;;;345083;28;1191;-69
2021/06/21 00:41:12;;;;;;;3.17;2.10;;;;;;;;;;345107;28;1093;-69
2021/06/21 00:41:24;;;;;;;3.20;2.25;;;;;;;;;;343611;28;1039;-70
2021/06/21 00:41:37;;;;;;;2.58;2.10;;;;;;;;;;343809;28;1104;-69
2021/06/21 00:41:49;;;;;;;2.40;2.10;;;;;;;;;;342562;28;1092;-71
2021/06/21 00:42:01;;;;;;;4.30;2.10;;;;;;;;;;342389;28;1095;-70
2021/06/21 00:42:13;;;;;;;3.92;2.10;;;;;;;;;;343030;28;1879;-69
2021/06/21 00:42:26;;;;;;;3.60;2.08;;;;;;;;;;343755;28;1084;-69
2021/06/21 00:42:40;;;;;;;3.42;2.20;;;;;;;;;;343728;28;1077;-69
2021/06/21 00:42:52;;;;;;;3.80;2.30;;;;;;;;;;341783;28;16859;-69
2021/06/21 00:43:04;;;;;;;3.63;2.00;;;;;;;;;;342566;28;1845;-71
2021/06/21 00:43:17;;;;;;;2.88;1.90;;;;;;;;;;342394;28;1093;-71
2021/06/21 00:43:29;;;;;;;2.80;2.00;;;;;;;;;;343630;28;1108;-69
2021/06/21 00:43:41;;;;;;;2.65;2.10;;;;;;;;;;343791;28;1147;-68
2021/06/21 00:43:53;;;;;;;2.50;2.00;;;;;;;;;;343553;28;1146;-70
2021/06/21 00:44:07;;;;;;;2.33;2.00;;;;;;;;;;343647;28;1003;-70
2021/06/21 00:44:19;;;;;;;2.40;1.98;;;;;;;;;;343317;28;16686;-69
2021/06/21 00:44:31;;;;;;;2.63;2.20;;;;;;;;;;343716;28;1335;-69
2021/06/21 00:44:43;;;;;;;3.42;2.28;;;;;;;;;;343664;28;1205;-69
2021/06/21 00:44:56;;;;;;;3.78;2.20;;;;;;;;;;343454;28;952;-70
2021/06/21 00:45:08;;;;;;;4.30;2.05;;;;;;;;;;343762;28;1046;-71
2021/06/21 00:45:21;;;;;;;3.90;1.88;;;;;;;;;;343581;28;1169;-70
2021/06/21 00:45:35;;;;;;;3.50;1.90;;;;;;;;;;342384;28;40205;-70
2021/06/21 00:45:48;;;;;;;3.92;1.90;;;;;;;;;;342281;28;1201;-70
2021/06/21 00:46:01;;;;;;;4.47;1.80;;;;;;;;;;343841;28;1094;-70
2021/06/21 00:46:14;;;;;;;3.56;1.90;;;;;;;;;;343847;28;1179;-69
2021/06/21 00:46:26;;;;;;;3.90;1.98;;;;;;;;;;345182;28;1098;-70
2021/06/21 00:46:39;;;;;;;4.10;2.00;;;;;;;;;;345054;28;1062;-69
2021/06/21 00:46:51;;;;;;;4.35;2.00;;;;;;;;;;345015;28;1362;-69
2021/06/21 00:47:03;;;;;;;3.80;2.00;;;;;;;;;;345065;28;1045;-69
2021/06/21 00:47:16;;;;;;;2.97;1.92;;;;;;;;;;346472;28;995;-69
2021/06/21 00:47:28;;;;;;;2.53;1.73;;;;;;;;;;346873;28;1156;-71
2021/06/21 00:47:40;;;;;;;2.50;1.80;;;;;;;;;;346613;28;1309;-69
2021/06/21 00:47:53;;;;;;;2.28;1.85;;;;;;;;;;346511;28;1192;-69
2021/06/21 00:48:05;;;;;;;2.55;2.00;;;;;;;;;;344910;28;1922;-69
2021/06/21 00:48:18;;;;;;;3.53;2.10;;;;;;;;;;345059;28;1050;-69
2021/06/21 00:48:30;;;;;;;3.85;2.10;;;;;;;;;;345062;28;1083;-69
2021/06/21 00:48:42;;;;;;;2.97;2.00;;;;;;;;;;344819;28;1126;-71
2021/06/21 00:48:54;;;;;;;2.68;2.00;;;;;;;;;;345067;28;1181;-71
2021/06/21 00:49:07;;;;;;;2.80;2.08;;;;;;;;;;345035;28;1011;-70
2021/06/21 00:49:19;;;;;;;4.22;2.17;;;;;;;;;;344882;28;979;-71
2021/06/21 00:49:31;;;;;;;4.03;2.30;;;;;;;;;;345052;28;955;-70
2021/06/21 00:49:44;;;;;;;4.03;2.10;;;;;;;;;;344993;28;1082;-70
2021/06/21 00:49:56;;;;;;;3.58;1.98;;;;;;;;;;345005;28;1086;-72
2021/06/21 00:50:09;;;;;;;4.22;2.00;;;;;;;;;;343810;28;1121;-71
2021/06/21 00:50:22;;;;;;;4.18;2.08;;;;;;;;;;343774;28;1032;-70
2021/06/21 00:50:34;;;;;;;3.50;2.13;;;;;;;;;;343788;28;1170;-69
2021/06/21 00:50:46;;;;;;;3.08;2.17;;;;;;;;;;344923;28;1106;-69
2021/06/21 00:50:58;;;;;;;4.18;2.38;;;;;;;;;;344991;28;1102;-71
2021/06/21 00:51:11;;;;;;;3.76;2.32;;;;;;;;;;343756;28;1252;-70
2021/06/21 00:51:23;;;;;;;3.53;2.30;;;;;;;;;;343547;28;1192;-71
2021/06/21 00:51:35;;;;;;;3.17;2.20;;;;;;;;;;342406;28;1166;-68
2021/06/21 00:51:47;;;;;;;2.63;2.20;;;;;;;;;;342527;28;1211;-69
2021/06/21 00:51:59;;;;;;;2.83;2.28;;;;;;;;;;342333;28;1118;-71
2021/06/21 00:52:16;;;;;;;3.60;2.30;;;;;;;;;;342429;28;1188;-70
2021/06/21 00:52:28;;;;;;;4.85;2.30;;;;;;;;;;340217;28;64186;-71
2021/06/21 00:52:42;;;;;;;4.45;2.30;;;;;;;;;;342352;28;1178;-70
2021/06/21 00:52:57;;;;;;;4.32;2.30;;;;;;;;;;343818;28;1278;-69
2021/06/21 00:53:09;;;;;;;4.05;2.22;;;;;;;;;;342902;28;40973;-71
2021/06/21 00:53:21;;;;;;;4.38;2.50;;;;;;;;;;345020;28;1132;-69
2021/06/21 00:53:33;;;;;;;4.55;2.50;;;;;;;;;;345514;28;975;-69
2021/06/21 00:53:46;;;;;;;4.93;2.38;;;;;;;;;;346653;28;1092;-70
2021/06/21 00:53:58;;;;;;;4.53;2.15;;;;;;;;;;345250;28;1666;-69
2021/06/21 00:54:10;;;;;;;3.80;2.05;;;;;;;;;;345171;28;1256;-70
2021/06/21 00:54:23;;;;;;;2.90;2.00;;;;;;;;;;344912;28;1094;-70
2021/06/21 00:54:35;;;;;;;2.35;1.92;;;;;;;;;;345181;28;1054;-71
2021/06/21 00:54:59;;;;;;;2.78;2.08;;;;;;;;;;343959;28;1516;-69
2021/06/21 00:55:12;;;;;;;3.50;2.20;;;;;;;;;;341521;28;63695;-69
2021/06/21 00:55:29;;;;;;;3.70;2.17;;;;;;;;;;343606;28;1208;-71
2021/06/21 00:55:41;;;;;;;3.88;2.10;;;;;;;;;;341686;28;62874;-68
2021/06/21 00:55:54;;;;;;;5.95;2.10;;;;;;;;;;343527;28;992;-69
2021/06/21 00:56:06;;;;;;;6.70;2.17;;;;;;;;;;344990;28;1406;-69
2021/06/21 00:56:18;;;;;;;3.35;2.10;;;;;;;;;;345255;28;1168;-70
2021/06/21 00:56:30;;;;;;;3.10;2.10;;;;;;;;;;345029;28;1127;-69
2021/06/21 00:56:42;;;;;;;3.20;2.15;;;;;;;;;;345212;28;1038;-70
2021/06/21 00:56:55;;;;;;;3.45;2.13;;;;;;;;;;346287;28;1030;-70
2021/06/21 00:57:07;;;;;;;3.03;2.20;;;;;;;;;;346542;28;1992;-69
2021/06/21 00:57:19;;;;;;;3.13;2.15;;;;;;;;;;346707;28;1188;-70
2021/06/21 00:57:33;;;;;;;3.70;2.17;;;;;;;;;;346548;28;1085;-69
2021/06/21 00:57:45;;;;;;;3.20;2.15;;;;;;;;;;344762;28;16804;-70
2021/06/21 00:57:57;;;;;;;2.50;2.10;;;;;;;;;;344893;28;1065;-69
2021/06/21 00:58:09;;;;;;;2.67;2.17;;;;;;;;;;344990;28;1096;-71
2021/06/21 00:58:22;;;;;;;3.42;2.20;;;;;;;;;;345170;28;1177;-70
2021/06/21 00:58:34;;;;;;;3.90;2.20;;;;;;;;;;344867;28;1040;-71
2021/06/21 00:58:46;;;;;;;3.80;2.30;;;;;;;;;;345027;28;2326;-69
2021/06/21 00:59:00;;;;;;;2.97;2.30;;;;;;;;;;345178;28;1074;-71
2021/06/21 00:59:12;;;;;;;3.03;2.30;;;;;;;;;;344531;28;16625;-69
2021/06/21 00:59:24;;;;;;;2.58;2.28;;;;;;;;;;345207;28;1102;-71
2021/06/21 00:59:36;;;;;;;3.55;2.45;;;;;;;;;;345008;28;1208;-69
2021/06/21 00:59:48;;;;;;;3.50;2.30;;;;;;;;;;346115;28;1050;-70
2021/06/21 01:00:05;;;;;;;4.05;2.42;;;;;;;;;;346608;28;1342;-69
2021/06/21 01:00:19;;;;;;;3.45;2.58;;;;;;;;;;343183;28;63880;-70
2021/06/21 01:00:31;;;;;;;3.88;2.40;;;;;;;;;;344429;28;16800;-69
2021/06/21 01:00:43;;;;;;;4.40;2.50;;;;;;;;;;344967;28;1094;-71
2021/06/21 01:00:56;;;;;;;4.22;2.83;;;;;;;;;;344904;28;1050;-69
2021/06/21 01:01:08;;;;;;;3.45;2.80;;;;;;;;;;345214;28;1094;-70
2021/06/21 01:01:20;;;;;;;2.78;2.58;;;;;;;;;;344948;28;1110;-70
2021/06/21 01:01:32;;;;;;;2.70;2.50;;;;;;;;;;343129;28;1527;-71
2021/06/21 01:01:45;;;;;;;4.60;2.85;;;;;;;;;;342332;28;1518;-70
2021/06/21 01:01:57;;;;;;;5.20;2.90;;;;;;;;;;342493;28;995;-70
2021/06/21 01:02:11;;;;;;;5.07;2.70;;;;;;;;;;342495;28;1149;-71
2021/06/21 01:02:23;;;;;;;3.97;2.65;;;;;;;;;;342973;28;16620;-70
2021/06/21 01:02:36;;;;;;;3.53;2.55;;;;;;;;;;342042;28;1771;-69
2021/06/21 01:02:48;;;;;;;2.85;2.33;;;;;;;;;;342386;28;1238;-70
2021/06/21 01:03:04;;;;;;;2.83;2.30;;;;;;;;;;342505;28;1212;-70
2021/06/21 01:03:16;;;;;;;2.58;2.30;;;;;;;;;;340408;28;62514;-71
2021/06/21 01:03:29;;;;;;;3.42;2.60;;;;;;;;;;342503;28;1034;-70
2021/06/21 01:03:41;;;;;;;4.88;2.58;;;;;;;;;;343906;28;1101;-71
2021/06/21 01:03:53;;;;;;;4.97;2.53;;;;;;;;;;344865;28;1222;-70
2021/06/21 01:04:06;;;;;;;3.47;2.50;;;;;;;;;;343674;28;1792;-71
2021/06/21 01:04:18;;;;;;;3.05;2.35;;;;;;;;;;343672;28;1148;-70
2021/06/21 01:04:30;;;;;;;3.05;2.28;;;;;;;;;;343680;28;1119;-70
2021/06/21 01:04:42;;;;;;;3.60;2.40;;;;;;;;;;344935;28;1113;-71
2021/06/21 01:04:55;;;;;;;3.78;2.67;;;;;;;;;;345069;28;1128;-71
2021/06/21 01:05:08;;;;;;;3.38;2.50;;;;;;;;;;345179;28;1082;-71
2021/06/21 01:05:24;;;;;;;3.30;2.45;;;;;;;;;;344934;28;1100;-71
2021/06/21 01:05:38;;;;;;;3.45;2.55;;;;;;;;;;342786;28;62964;-71
2021/06/21 01:05:51;;;;;;;3.28;2.53;;;;;;;;;;344224;28;16890;-71
2021/06/21 01:06:03;;;;;;;5.07;2.63;;;;;;;;;;345130;28;1305;-70
2021/06/21 01:06:15;;;;;;;5.15;2.72;;;;;;;;;;346483;28;1262;-70
2021/06/21 01:06:28;;;;;;;3.75;2.60;;;;;;;;;;346273;28;968;-70
2021/06/21 01:06:40;;;;;;;2.70;2.50;;;;;;;;;;346459;28;1090;-70
2021/06/21 01:06:52;;;;;;;3.33;2.50;;;;;;;;;;346488;28;1234;-71
2021/06/21 01:07:04;;;;;;;3.60;2.47;;;;;;;;;;346510;28;1177;-71
2021/06/21 01:07:16;;;;;;;3.55;2.30;;;;;;;;;;346591;28;1072;-71
2021/06/21 01:07:29;;;;;;;2.88;2.13;;;;;;;;;;346392;28;1310;-70
2021/06/21 01:07:41;;;;;;;3.35;2.20;;;;;;;;;;346575;28;1380;-71
2021/06/21 01:07:54;;;;;;;3.72;2.47;;;;;;;;;;345111;28;1156;-70
2021/06/21 01:08:11;;;;;;;3.30;2.70;;;;;;;;;;341814;28;63061;-70
2021/06/21 01:08:23;;;;;;;3.33;2.58;;;;;;;;;;343490;28;1159;-71
2021/06/21 01:08:35;;;;;;;3.78;2.55;;;;;;;;;;343831;28;1094;-71
2021/06/21 01:08:48;;;;;;;5.70;2.67;;;;;;;;;;343741;28;1365;-71
2021/06/21 01:09:00;;;;;;;5.95;2.70;;;;;;;;;;343618;28;1224;-70
2021/06/21 01:09:12;;;;;;;5.07;2.70;;;;;;;;;;343798;28;1276;-72
2021/06/21 01:09:25;;;;;;;4.07;2.80;;;;;;;;;;343684;28;1285;-71
2021/06/21 01:09:37;;;;;;;4.68;2.90;;;;;;;;;;343685;28;1914;-71
2021/06/21 01:09:50;;;;;;;5.97;2.60;;;;;;;;;;343576;28;1321;-70
2021/06/21 01:10:03;;;;;;;5.63;2.50;;;;;;;;;;343745;28;1287;-71
2021/06/21 01:10:17;;;;;;;4.57;2.70;;;;;;;;;;343680;28;1070;-68
2021/06/21 01:10:30;;;;;;;4.68;2.80;;;;;;;;;;343243;28;17227;-71
2021/06/21 01:10:45;;;;;;;4.05;2.72;;;;;;;;;;343538;28;1054;-70
2021/06/21 01:10:57;;;;;;;3.33;2.58;;;;;;;;;;342445;28;40946;-71
2021/06/21 01:11:09;;;;;;;3.38;2.70;;;;;;;;;;343565;28;1281;-70
2021/06/21 01:11:27;;;;;;;3.35;2.80;;;;;;;;;;343881;28;1173;-71
2021/06/21 01:12:02;;;;;;;3.03;2.67;;;;;;;;;;341482;28;63864;-70
2021/06/21 01:12:19;;;;;;;4.53;2.65;;;;;;;;;;342786;28;63519;-70
2021/06/21 01:12:37;;;;;;;4.75;2.70;;;;;;;;;;343896;28;63637;-70
2021/06/21 01:12:52;;;;;;;4.53;2.70;;;;;;;;;;344371;28;64129;-70
2021/06/21 01:13:26;;;;;;;3.97;2.90;;;;;;;;;;344931;28;41240;-70
2021/06/21 01:13:41;;;;;;;3.28;2.50;;;;;;;;;;344222;28;64566;-70
2021/06/21 01:13:54;;;;;;;3.88;2.60;;;;;;;;;;345184;28;40108;-70
2021/06/21 01:14:12;;;;;;;4.72;2.67;;;;;;;;;;346543;28;1039;-71
2021/06/21 01:14:44;;;;;;;4.47;2.70;;;;;;;;;;344468;28;63939;-71
2021/06/21 01:15:01;;;;;;;2.90;2.50;;;;;;;;;;344237;28;64338;-71
2021/06/21 01:15:15;;;;;;;3.17;2.60;;;;;;;;;;344299;28;64996;-70
2021/06/21 01:15:30;;;;;;;3.00;2.63;;;;;;;;;;346070;28;16758;-71
2021/06/21 01:16:09;;;;;;;2.90;2.60;;;;;;;;;;345152;28;39752;-71
2021/06/21 01:16:26;;;;;;;4.68;2.70;;;;;;;;;;341829;28;64656;-71
2021/06/21 01:16:49;;;;;;;5.95;2.70;;;;;;;;;;344256;28;64068;-70
2021/06/21 01:17:09;;;;;;;4.43;2.63;;;;;;;;;;342985;28;62264;-70
2021/06/21 01:17:23;;;;;;;3.13;2.55;;;;;;;;;;342768;28;63811;-70
2021/06/21 01:17:35;;;;;;;3.78;2.70;;;;;;;;;;344510;28;17286;-70
2021/06/21 01:17:51;;;;;;;3.58;2.60;;;;;;;;;;344988;28;1042;-70
2021/06/21 01:18:09;;;;;;;3.08;2.70;;;;;;;;;;343048;28;64114;-69
2021/06/21 01:18:25;;;;;;;3.50;2.88;;;;;;;;;;342803;28;61787;-70
2021/06/21 01:18:44;;;;;;;4.63;2.80;;;;;;;;;;342666;28;63879;-70
2021/06/21 01:19:07;;;;;;;4.13;2.55;;;;;;;;;;342954;28;64094;-69
2021/06/21 01:19:38;;;;;;;3.88;2.80;;;;;;;;;;344287;28;63270;-70
2021/06/21 01:19:50;;;;;;;4.22;2.72;;;;;;;;;;344323;28;64463;-69
2021/06/21 01:20:03;;;;;;;4.03;2.90;;;;;;;;;;346636;28;1260;-69
2021/06/21 01:20:26;;;;;;;3.88;2.90;;;;;;;;;;345246;28;41071;-70
2021/06/21 01:20:57;;;;;;;4.00;2.76;;;;;;;;;;343591;28;86569;-72
2021/06/21 01:21:17;;;;;;;3.36;2.60;;;;;;;;;;343609;28;87528;-71